sensor_id;sensor_type;location;lat;lon;timestamp;pressure;altitude;pressure_sealevel;temperature;humidity
28181;BME280;15464;50.988;10.318;2023-03-21T00:00:42;99103.34;;;7.44;77.14
28181;BME280;15464;50.988;10.318;2023-03-21T00:03:09;99115.59;;;7.45;77.14
28181;BME280;15464;50.988;10.318;2023-03-21T00:05:40;99099.75;;;7.45;77.33
28181;BME280;15464;50.988;10.318;2023-03-21T00:08:08;99095.44;;;7.44;76.46
28181;BME280;15464;50.988;10.318;2023-03-21T00:10:34;99095.22;;;7.47;77.10
28181;BME280;15464;50.988;10.318;2023-03-21T00:13:11;99093.03;;;7.41;77.51
28181;BME280;15464;50.988;10.318;2023-03-21T00:15:38;99090.59;;;7.38;77.26
28181;BME280;15464;50.988;10.318;2023-03-21T00:18:35;99098.06;;;7.44;76.48
28181;BME280;15464;50.988;10.318;2023-03-21T00:21:04;99092.09;;;7.42;77.38
28181;BME280;15464;50.988;10.318;2023-03-21T00:23:51;99091.13;;;7.43;76.66
28181;BME280;15464;50.988;10.318;2023-03-21T00:26:17;99087.84;;;7.40;76.05
28181;BME280;15464;50.988;10.318;2023-03-21T00:28:44;99082.25;;;7.44;76.33
28181;BME280;15464;50.988;10.318;2023-03-21T00:31:11;99086.66;;;7.44;76.39
28181;BME280;15464;50.988;10.318;2023-03-21T00:33:37;99089.97;;;7.47;76.52
28181;BME280;15464;50.988;10.318;2023-03-21T00:36:06;99089.44;;;7.42;76.29
28181;BME280;15464;50.988;10.318;2023-03-21T00:38:33;99091.53;;;7.50;76.87
28181;BME280;15464;50.988;10.318;2023-03-21T00:41:05;99086.66;;;7.44;76.07
28181;BME280;15464;50.988;10.318;2023-03-21T00:43:46;99091.66;;;7.48;76.42
28181;BME280;15464;50.988;10.318;2023-03-21T00:46:13;99077.38;;;7.51;76.64
28181;BME280;15464;50.988;10.318;2023-03-21T00:48:39;99081.94;;;7.49;76.74
28181;BME280;15464;50.988;10.318;2023-03-21T00:51:20;99075.69;;;7.50;76.51
28181;BME280;15464;50.988;10.318;2023-03-21T00:53:56;99070.41;;;7.50;76.41
28181;BME280;15464;50.988;10.318;2023-03-21T00:56:23;99066.38;;;7.57;76.69
28181;BME280;15464;50.988;10.318;2023-03-21T00:58:50;99071.25;;;7.50;77.07
28181;BME280;15464;50.988;10.318;2023-03-21T01:01:17;99064.94;;;7.53;76.87
28181;BME280;15464;50.988;10.318;2023-03-21T01:03:44;99066.22;;;7.47;76.71
28181;BME280;15464;50.988;10.318;2023-03-21T01:06:13;99061.53;;;7.51;76.29
28181;BME280;15464;50.988;10.318;2023-03-21T01:08:47;99063.97;;;7.54;76.72
28181;BME280;15464;50.988;10.318;2023-03-21T01:11:23;99069.97;;;7.56;75.98
28181;BME280;15464;50.988;10.318;2023-03-21T01:13:51;99059.41;;;7.56;76.07
28181;BME280;15464;50.988;10.318;2023-03-21T01:16:29;99056.41;;;7.49;75.85
28181;BME280;15464;50.988;10.318;2023-03-21T01:18:57;99055.84;;;7.44;75.70
28181;BME280;15464;50.988;10.318;2023-03-21T01:21:25;99061.38;;;7.41;75.53
28181;BME280;15464;50.988;10.318;2023-03-21T01:23:52;99050.97;;;7.51;75.45
28181;BME280;15464;50.988;10.318;2023-03-21T01:26:22;99053.31;;;7.55;75.94
28181;BME280;15464;50.988;10.318;2023-03-21T01:28:49;99054.78;;;7.59;75.42
28181;BME280;15464;50.988;10.318;2023-03-21T01:31:16;99050.94;;;7.63;75.35
28181;BME280;15464;50.988;10.318;2023-03-21T01:33:44;99051.81;;;7.64;75.33
28181;BME280;15464;50.988;10.318;2023-03-21T01:36:16;99059.94;;;7.61;75.79
28181;BME280;15464;50.988;10.318;2023-03-21T01:38:48;99052.47;;;7.55;75.52
28181;BME280;15464;50.988;10.318;2023-03-21T01:41:31;99050.38;;;7.47;75.84
28181;BME280;15464;50.988;10.318;2023-03-21T01:44:16;99050.38;;;7.47;75.62
28181;BME280;15464;50.988;10.318;2023-03-21T01:46:46;99050.28;;;7.49;76.57
28181;BME280;15464;50.988;10.318;2023-03-21T01:49:37;99048.34;;;7.51;76.47
28181;BME280;15464;50.988;10.318;2023-03-21T01:52:09;99046.38;;;7.42;75.35
28181;BME280;15464;50.988;10.318;2023-03-21T01:54:50;99044.75;;;7.52;76.04
28181;BME280;15464;50.988;10.318;2023-03-21T01:57:26;99039.72;;;7.49;76.33
28181;BME280;15464;50.988;10.318;2023-03-21T02:00:09;99032.00;;;7.46;75.81
28181;BME280;15464;50.988;10.318;2023-03-21T02:02:44;99037.78;;;7.51;75.62
28181;BME280;15464;50.988;10.318;2023-03-21T02:05:22;99045.50;;;7.54;76.18
28181;BME280;15464;50.988;10.318;2023-03-21T02:07:52;99030.63;;;7.53;76.11
28181;BME280;15464;50.988;10.318;2023-03-21T02:10:19;99035.34;;;7.60;75.95
28181;BME280;15464;50.988;10.318;2023-03-21T02:12:46;99031.56;;;7.52;75.81
28181;BME280;15464;50.988;10.318;2023-03-21T02:15:13;99022.81;;;7.51;75.65
28181;BME280;15464;50.988;10.318;2023-03-21T02:18:21;99026.38;;;7.50;76.63
28181;BME280;15464;50.988;10.318;2023-03-21T02:37:38;99009.81;;;7.61;76.23
28181;BME280;15464;50.988;10.318;2023-03-21T02:40:31;99014.84;;;7.64;75.37
28181;BME280;15464;50.988;10.318;2023-03-21T02:45:55;99002.19;;;7.56;74.93
28181;BME280;15464;50.988;10.318;2023-03-21T02:48:28;98997.75;;;7.57;75.31
28181;BME280;15464;50.988;10.318;2023-03-21T02:51:17;99001.34;;;7.56;76.16
28181;BME280;15464;50.988;10.318;2023-03-21T02:53:49;98999.16;;;7.50;75.98
28181;BME280;15464;50.988;10.318;2023-03-21T02:56:38;99001.34;;;7.56;76.03
28181;BME280;15464;50.988;10.318;2023-03-21T02:59:09;99001.59;;;7.53;76.35
28181;BME280;15464;50.988;10.318;2023-03-21T03:01:36;98996.91;;;7.56;75.65
28181;BME280;15464;50.988;10.318;2023-03-21T03:04:03;98991.63;;;7.56;75.75
28181;BME280;15464;50.988;10.318;2023-03-21T03:06:39;98994.84;;;7.49;75.44
28181;BME280;15464;50.988;10.318;2023-03-21T03:09:33;98989.22;;;7.53;75.54
28181;BME280;15464;50.988;10.318;2023-03-21T03:17:50;98995.84;;;7.59;76.02
28181;BME280;15464;50.988;10.318;2023-03-21T03:20:27;98985.75;;;7.53;75.47
28181;BME280;15464;50.988;10.318;2023-03-21T03:25:26;98992.72;;;7.54;76.70
28181;BME280;15464;50.988;10.318;2023-03-21T03:28:08;98992.63;;;7.55;76.30
28181;BME280;15464;50.988;10.318;2023-03-21T03:30:37;98994.16;;;7.58;76.18
28181;BME280;15464;50.988;10.318;2023-03-21T03:33:15;98991.03;;;7.53;75.85
28181;BME280;15464;50.988;10.318;2023-03-21T03:35:44;98981.06;;;7.56;75.65
28181;BME280;15464;50.988;10.318;2023-03-21T03:38:28;98983.72;;;7.56;76.04
28181;BME280;15464;50.988;10.318;2023-03-21T03:41:09;98981.91;;;7.57;75.20
28181;BME280;15464;50.988;10.318;2023-03-21T03:43:58;98969.66;;;7.56;75.83
28181;BME280;15464;50.988;10.318;2023-03-21T03:46:30;98974.28;;;7.65;75.61
28181;BME280;15464;50.988;10.318;2023-03-21T03:49:12;98975.25;;;7.64;75.27
28181;BME280;15464;50.988;10.318;2023-03-21T03:51:54;98973.09;;;7.69;76.01
28181;BME280;15464;50.988;10.318;2023-03-21T03:54:26;98980.88;;;7.59;75.58
28181;BME280;15464;50.988;10.318;2023-03-21T03:56:55;98977.84;;;7.53;75.58
28181;BME280;15464;50.988;10.318;2023-03-21T03:59:23;98975.19;;;7.53;75.35
28181;BME280;15464;50.988;10.318;2023-03-21T04:01:50;98981.06;;;7.56;75.79
28181;BME280;15464;50.988;10.318;2023-03-21T04:04:17;98977.38;;;7.59;75.81
28181;BME280;15464;50.988;10.318;2023-03-21T04:06:44;98970.91;;;7.63;75.96
28181;BME280;15464;50.988;10.318;2023-03-21T04:09:17;98971.75;;;7.63;75.66
28181;BME280;15464;50.988;10.318;2023-03-21T04:11:50;98975.75;;;7.69;75.15
28181;BME280;15464;50.988;10.318;2023-03-21T04:14:17;98972.16;;;7.70;74.95
28181;BME280;15464;50.988;10.318;2023-03-21T04:16:43;98975.88;;;7.67;75.43
28181;BME280;15464;50.988;10.318;2023-03-21T04:19:10;98976.84;;;7.66;75.44
28181;BME280;15464;50.988;10.318;2023-03-21T04:21:37;98975.13;;;7.65;75.20
28181;BME280;15464;50.988;10.318;2023-03-21T04:24:04;98972.59;;;7.64;75.73
28181;BME280;15464;50.988;10.318;2023-03-21T04:26:33;98973.44;;;7.64;76.24
28181;BME280;15464;50.988;10.318;2023-03-21T04:29:01;98972.84;;;7.61;76.38
28181;BME280;15464;50.988;10.318;2023-03-21T04:31:29;98971.16;;;7.60;76.11
28181;BME280;15464;50.988;10.318;2023-03-21T04:33:57;98977.69;;;7.67;75.70
28181;BME280;15464;50.988;10.318;2023-03-21T04:36:25;98976.28;;;7.74;75.50
28181;BME280;15464;50.988;10.318;2023-03-21T04:38:56;98971.72;;;7.76;75.83
28181;BME280;15464;50.988;10.318;2023-03-21T04:41:29;98970.53;;;7.80;74.87
28181;BME280;15464;50.988;10.318;2023-03-21T04:43:56;98975.09;;;7.78;75.20
28181;BME280;15464;50.988;10.318;2023-03-21T04:46:23;98975.63;;;7.70;75.59
28181;BME280;15464;50.988;10.318;2023-03-21T04:48:50;98974.69;;;7.72;75.41
28181;BME280;15464;50.988;10.318;2023-03-21T04:51:16;98979.72;;;7.75;74.88
28181;BME280;15464;50.988;10.318;2023-03-21T04:53:43;98977.94;;;7.75;75.38
28181;BME280;15464;50.988;10.318;2023-03-21T04:56:11;98976.59;;;7.69;75.73
28181;BME280;15464;50.988;10.318;2023-03-21T04:58:38;98976.03;;;7.53;76.14
28181;BME280;15464;50.988;10.318;2023-03-21T05:01:06;98969.25;;;7.62;75.92
28181;BME280;15464;50.988;10.318;2023-03-21T05:03:34;98969.25;;;7.62;75.66
28181;BME280;15464;50.988;10.318;2023-03-21T05:06:06;98969.13;;;7.63;75.91
28181;BME280;15464;50.988;10.318;2023-03-21T05:08:37;98977.44;;;7.70;75.21
28181;BME280;15464;50.988;10.318;2023-03-21T05:11:04;98970.47;;;7.69;75.85
28181;BME280;15464;50.988;10.318;2023-03-21T05:13:30;98974.81;;;7.70;75.69
28181;BME280;15464;50.988;10.318;2023-03-21T05:15:57;98968.56;;;7.71;75.62
28181;BME280;15464;50.988;10.318;2023-03-21T05:18:24;98966.88;;;7.70;75.88
28181;BME280;15464;50.988;10.318;2023-03-21T05:20:52;98966.97;;;7.68;75.71
28181;BME280;15464;50.988;10.318;2023-03-21T05:23:23;98966.44;;;7.76;75.46
28181;BME280;15464;50.988;10.318;2023-03-21T05:25:50;98976.78;;;7.79;75.53
28181;BME280;15464;50.988;10.318;2023-03-21T05:28:16;98973.50;;;7.76;75.86
28181;BME280;15464;50.988;10.318;2023-03-21T05:30:46;98975.47;;;7.61;76.37
28181;BME280;15464;50.988;10.318;2023-03-21T05:33:13;98971.81;;;7.51;76.62
28181;BME280;15464;50.988;10.318;2023-03-21T05:35:40;98971.38;;;7.57;76.46
28181;BME280;15464;50.988;10.318;2023-03-21T05:38:06;98968.41;;;7.61;76.88
28181;BME280;15464;50.988;10.318;2023-03-21T05:40:33;98962.03;;;7.64;76.68
28181;BME280;15464;50.988;10.318;2023-03-21T05:43:00;98962.28;;;7.61;76.59
28181;BME280;15464;50.988;10.318;2023-03-21T05:45:26;98971.66;;;7.65;76.65
28181;BME280;15464;50.988;10.318;2023-03-21T05:47:53;98967.31;;;7.64;76.43
28181;BME280;15464;50.988;10.318;2023-03-21T05:50:20;98973.84;;;7.71;76.19
28181;BME280;15464;50.988;10.318;2023-03-21T05:52:47;98971.59;;;7.78;76.17
28181;BME280;15464;50.988;10.318;2023-03-21T05:55:13;98972.66;;;7.75;76.31
28181;BME280;15464;50.988;10.318;2023-03-21T05:57:40;98973.50;;;7.76;76.81
28181;BME280;15464;50.988;10.318;2023-03-21T06:00:07;98975.31;;;7.75;76.71
28181;BME280;15464;50.988;10.318;2023-03-21T06:02:34;98969.81;;;7.78;77.16
28181;BME280;15464;50.988;10.318;2023-03-21T06:05:02;98962.00;;;7.77;76.92
28181;BME280;15464;50.988;10.318;2023-03-21T06:07:29;98972.72;;;7.86;76.80
28181;BME280;15464;50.988;10.318;2023-03-21T06:09:55;98962.38;;;7.83;76.38
28181;BME280;15464;50.988;10.318;2023-03-21T06:12:22;98965.53;;;7.88;76.46
28181;BME280;15464;50.988;10.318;2023-03-21T06:14:49;98961.47;;;7.95;76.45
28181;BME280;15464;50.988;10.318;2023-03-21T06:17:15;98958.38;;;8.01;76.77
28181;BME280;15464;50.988;10.318;2023-03-21T06:19:42;98962.50;;;8.05;77.05
28181;BME280;15464;50.988;10.318;2023-03-21T06:22:09;98958.88;;;8.06;76.71
28181;BME280;15464;50.988;10.318;2023-03-21T06:24:35;98965.63;;;8.10;76.30
28181;BME280;15464;50.988;10.318;2023-03-21T06:27:02;98961.00;;;8.01;76.05
28181;BME280;15464;50.988;10.318;2023-03-21T06:29:29;98955.28;;;8.07;76.37
28181;BME280;15464;50.988;10.318;2023-03-21T06:31:56;98952.53;;;8.09;75.91
28181;BME280;15464;50.988;10.318;2023-03-21T06:34:23;98955.28;;;8.07;75.42
28181;BME280;15464;50.988;10.318;2023-03-21T06:36:50;98950.47;;;8.13;75.56
28181;BME280;15464;50.988;10.318;2023-03-21T06:39:17;98944.53;;;8.22;76.10
28181;BME280;15464;50.988;10.318;2023-03-21T06:41:44;98949.44;;;8.26;75.04
28181;BME280;15464;50.988;10.318;2023-03-21T06:44:11;98956.09;;;8.32;75.87
28181;BME280;15464;50.988;10.318;2023-03-21T06:46:37;98952.88;;;8.39;76.15
28181;BME280;15464;50.988;10.318;2023-03-21T06:49:04;98963.34;;;8.41;75.33
28181;BME280;15464;50.988;10.318;2023-03-21T06:51:31;98962.25;;;8.43;75.63
28181;BME280;15464;50.988;10.318;2023-03-21T06:53:58;98963.34;;;8.41;76.04
28181;BME280;15464;50.988;10.318;2023-03-21T06:56:25;98956.84;;;8.45;74.54
28181;BME280;15464;50.988;10.318;2023-03-21T06:58:51;98961.66;;;8.40;75.15
28181;BME280;15464;50.988;10.318;2023-03-21T07:01:18;98962.97;;;8.45;75.13
28181;BME280;15464;50.988;10.318;2023-03-21T07:03:45;98949.78;;;8.57;74.59
28181;BME280;15464;50.988;10.318;2023-03-21T07:06:12;98951.09;;;8.62;75.35
28181;BME280;15464;50.988;10.318;2023-03-21T07:08:40;98958.31;;;8.60;74.93
28181;BME280;15464;50.988;10.318;2023-03-21T07:11:08;98963.63;;;8.60;74.03
28181;BME280;15464;50.988;10.318;2023-03-21T07:13:34;98961.94;;;8.59;73.87
28181;BME280;15464;50.988;10.318;2023-03-21T07:16:01;98962.19;;;8.67;73.25
28181;BME280;15464;50.988;10.318;2023-03-21T07:18:28;98958.59;;;8.79;74.35
28181;BME280;15464;50.988;10.318;2023-03-21T07:20:56;98964.59;;;8.93;74.16
28181;BME280;15464;50.988;10.318;2023-03-21T07:23:25;98959.69;;;8.99;72.90
28181;BME280;15464;50.988;10.318;2023-03-21T07:25:53;98966.78;;;8.99;72.48
28181;BME280;15464;50.988;10.318;2023-03-21T07:28:20;98961.69;;;9.29;71.99
28181;BME280;15464;50.988;10.318;2023-03-21T07:30:55;98957.81;;;9.55;72.87
28181;BME280;15464;50.988;10.318;2023-03-21T07:33:23;98963.59;;;9.49;69.59
28181;BME280;15464;50.988;10.318;2023-03-21T07:35:51;98953.16;;;9.80;69.86
28181;BME280;15464;50.988;10.318;2023-03-21T07:38:19;98947.22;;;10.19;70.03
28181;BME280;15464;50.988;10.318;2023-03-21T07:40:46;98949.56;;;10.33;70.04
28181;BME280;15464;50.988;10.318;2023-03-21T07:43:14;98955.78;;;10.11;68.89
28181;BME280;15464;50.988;10.318;2023-03-21T07:45:42;98947.19;;;10.30;69.14
28181;BME280;15464;50.988;10.318;2023-03-21T07:48:10;98948.31;;;10.37;68.75
28181;BME280;15464;50.988;10.318;2023-03-21T07:50:39;98951.16;;;10.25;68.52
28181;BME280;15464;50.988;10.318;2023-03-21T07:53:06;98953.16;;;10.32;68.32
28181;BME280;15464;50.988;10.318;2023-03-21T07:55:33;98943.59;;;10.20;67.80
28181;BME280;15464;50.988;10.318;2023-03-21T07:58:03;98945.75;;;10.15;67.87
28181;BME280;15464;50.988;10.318;2023-03-21T08:00:30;98948.13;;;10.29;69.07
28181;BME280;15464;50.988;10.318;2023-03-21T08:02:57;98961.31;;;10.40;68.34
28181;BME280;15464;50.988;10.318;2023-03-21T08:05:33;98948.38;;;10.26;68.99
28181;BME280;15464;50.988;10.318;2023-03-21T08:08:01;98949.84;;;10.19;68.80
28181;BME280;15464;50.988;10.318;2023-03-21T08:10:28;98951.00;;;10.05;69.00
28181;BME280;15464;50.988;10.318;2023-03-21T08:12:55;98931.78;;;10.13;68.86
28181;BME280;15464;50.988;10.318;2023-03-21T08:15:21;98935.13;;;10.26;68.26
28181;BME280;15464;50.988;10.318;2023-03-21T08:17:48;98938.44;;;10.39;67.92
28181;BME280;15464;50.988;10.318;2023-03-21T08:20:18;98936.81;;;10.27;67.98
28181;BME280;15464;50.988;10.318;2023-03-21T08:22:48;98933.19;;;10.28;68.17
28181;BME280;15464;50.988;10.318;2023-03-21T08:25:16;98946.13;;;10.42;68.61
28181;BME280;15464;50.988;10.318;2023-03-21T08:27:45;98934.59;;;10.32;68.46
28181;BME280;15464;50.988;10.318;2023-03-21T08:30:14;98932.91;;;10.52;68.76
28181;BME280;15464;50.988;10.318;2023-03-21T08:32:42;98928.59;;;10.51;68.68
28181;BME280;15464;50.988;10.318;2023-03-21T08:35:11;98932.09;;;10.51;68.21
28181;BME280;15464;50.988;10.318;2023-03-21T08:37:40;98944.63;;;10.49;68.77
28181;BME280;15464;50.988;10.318;2023-03-21T08:40:11;98935.69;;;10.50;69.38
28181;BME280;15464;50.988;10.318;2023-03-21T08:42:42;98919.25;;;10.57;68.71
28181;BME280;15464;50.988;10.318;2023-03-21T08:45:11;98930.72;;;10.57;68.73
28181;BME280;15464;50.988;10.318;2023-03-21T08:47:38;98925.72;;;10.64;68.31
28181;BME280;15464;50.988;10.318;2023-03-21T08:50:07;98934.84;;;10.71;69.18
28181;BME280;15464;50.988;10.318;2023-03-21T08:52:34;98927.16;;;10.68;68.66
28181;BME280;15464;50.988;10.318;2023-03-21T08:55:00;98919.94;;;10.79;68.79
28181;BME280;15464;50.988;10.318;2023-03-21T08:57:28;98935.28;;;10.76;68.56
28181;BME280;15464;50.988;10.318;2023-03-21T08:59:55;98923.91;;;10.95;68.92
28181;BME280;15464;50.988;10.318;2023-03-21T09:02:22;98934.16;;;10.99;69.04
28181;BME280;15464;50.988;10.318;2023-03-21T09:04:49;98929.81;;;11.08;68.53
28181;BME280;15464;50.988;10.318;2023-03-21T09:07:18;98934.06;;;11.20;68.58
28181;BME280;15464;50.988;10.318;2023-03-21T09:09:45;98924.03;;;11.23;68.14
28181;BME280;15464;50.988;10.318;2023-03-21T09:12:19;98928.81;;;11.39;67.68
28181;BME280;15464;50.988;10.318;2023-03-21T09:14:45;98932.03;;;11.43;67.62
28181;BME280;15464;50.988;10.318;2023-03-21T09:17:12;98926.16;;;11.39;67.00
28181;BME280;15464;50.988;10.318;2023-03-21T09:19:39;98923.66;;;11.57;66.73
28181;BME280;15464;50.988;10.318;2023-03-21T09:22:06;98932.03;;;11.43;65.12
28181;BME280;15464;50.988;10.318;2023-03-21T09:24:36;98928.72;;;11.69;66.15
28181;BME280;15464;50.988;10.318;2023-03-21T09:27:03;98930.56;;;11.88;66.15
28181;BME280;15464;50.988;10.318;2023-03-21T09:29:30;98929.34;;;11.92;66.48
28181;BME280;15464;50.988;10.318;2023-03-21T09:31:57;98924.97;;;12.01;66.09
28181;BME280;15464;50.988;10.318;2023-03-21T09:34:25;98920.63;;;12.19;65.75
28181;BME280;15464;50.988;10.318;2023-03-21T09:36:51;98922.44;;;12.19;65.57
28181;BME280;15464;50.988;10.318;2023-03-21T09:39:22;98917.97;;;12.29;65.07
28181;BME280;15464;50.988;10.318;2023-03-21T09:41:58;98923.44;;;12.18;62.90
28181;BME280;15464;50.988;10.318;2023-03-21T09:47:12;98914.03;;;12.33;64.41
28181;BME280;15464;50.988;10.318;2023-03-21T09:50:01;98917.13;;;12.28;64.44
28181;BME280;15464;50.988;10.318;2023-03-21T09:53:11;98909.59;;;11.95;63.66
28181;BME280;15464;50.988;10.318;2023-03-21T09:55:41;98908.47;;;11.88;65.23
28181;BME280;15464;50.988;10.318;2023-03-21T10:01:16;98904.41;;;12.03;65.58
28181;BME280;15464;50.988;10.318;2023-03-21T10:04:12;98909.31;;;12.07;64.15
28181;BME280;15464;50.988;10.318;2023-03-21T10:06:42;98906.50;;;12.09;64.00
28181;BME280;15464;50.988;10.318;2023-03-21T10:09:19;98898.09;;;12.23;64.51
28181;BME280;15464;50.988;10.318;2023-03-21T10:11:52;98897.50;;;12.48;63.00
28181;BME280;15464;50.988;10.318;2023-03-21T10:14:20;98898.88;;;12.52;64.12
28181;BME280;15464;50.988;10.318;2023-03-21T10:16:54;98890.72;;;12.64;63.01
28181;BME280;15464;50.988;10.318;2023-03-21T10:19:23;98880.31;;;12.70;63.92
28181;BME280;15464;50.988;10.318;2023-03-21T10:21:50;98878.25;;;12.64;62.31
28181;BME280;15464;50.988;10.318;2023-03-21T10:24:27;98866.28;;;12.78;64.34
28181;BME280;15464;50.988;10.318;2023-03-21T10:26:55;98880.00;;;12.83;63.66
28181;BME280;15464;50.988;10.318;2023-03-21T10:29:26;98876.28;;;12.93;62.21
28181;BME280;15464;50.988;10.318;2023-03-21T10:31:54;98875.94;;;13.16;62.07
28181;BME280;15464;50.988;10.318;2023-03-21T10:35:04;98877.88;;;13.23;61.70
28181;BME280;15464;50.988;10.318;2023-03-21T10:37:12;98868.34;;;13.21;61.52
28181;BME280;15464;50.988;10.318;2023-03-21T10:39:44;98860.22;;;13.40;61.14
28181;BME280;15464;50.988;10.318;2023-03-21T10:42:24;98872.34;;;13.52;59.88
28181;BME280;15464;50.988;10.318;2023-03-21T10:44:54;98864.81;;;13.48;58.91
28181;BME280;15464;50.988;10.318;2023-03-21T10:47:27;98859.84;;;13.70;59.00
28181;BME280;15464;50.988;10.318;2023-03-21T10:49:54;98866.31;;;13.32;57.84
28181;BME280;15464;50.988;10.318;2023-03-21T10:52:49;98860.25;;;13.58;59.29
28181;BME280;15464;50.988;10.318;2023-03-21T10:55:22;98851.41;;;13.75;58.08
28181;BME280;15464;50.988;10.318;2023-03-21T10:57:54;98859.19;;;14.12;59.47
28181;BME280;15464;50.988;10.318;2023-03-21T11:00:27;98856.44;;;14.22;58.82
28181;BME280;15464;50.988;10.318;2023-03-21T11:02:56;98860.03;;;14.56;57.91
28181;BME280;15464;50.988;10.318;2023-03-21T11:08:15;98845.75;;;14.39;56.68
28181;BME280;15464;50.988;10.318;2023-03-21T11:11:02;98837.84;;;14.12;56.84
28181;BME280;15464;50.988;10.318;2023-03-21T11:13:38;98841.63;;;14.27;57.35
28181;BME280;15464;50.988;10.318;2023-03-21T11:16:39;98848.53;;;14.12;57.85
28181;BME280;15464;50.988;10.318;2023-03-21T11:21:39;98845.81;;;14.04;57.82
28181;BME280;15464;50.988;10.318;2023-03-21T11:24:12;98844.31;;;13.84;58.42
28181;BME280;15464;50.988;10.318;2023-03-21T11:26:41;98843.16;;;14.04;59.05
28181;BME280;15464;50.988;10.318;2023-03-21T11:29:39;98830.75;;;14.21;59.14
28181;BME280;15464;50.988;10.318;2023-03-21T11:32:15;98831.09;;;13.74;59.91
28181;BME280;15464;50.988;10.318;2023-03-21T11:34:49;98832.66;;;14.28;59.39
28181;BME280;15464;50.988;10.318;2023-03-21T11:37:20;98827.69;;;14.59;58.85
28181;BME280;15464;50.988;10.318;2023-03-21T11:39:54;98834.09;;;14.40;58.53
28181;BME280;15464;50.988;10.318;2023-03-21T11:42:32;98834.53;;;14.10;58.79
28181;BME280;15464;50.988;10.318;2023-03-21T11:45:26;98830.25;;;14.17;58.76
28181;BME280;15464;50.988;10.318;2023-03-21T11:47:56;98825.09;;;13.98;57.87
28181;BME280;15464;50.988;10.318;2023-03-21T11:50:36;98819.50;;;14.09;57.70
28181;BME280;15464;50.988;10.318;2023-03-21T12:04:09;98806.19;;;14.61;57.51
28181;BME280;15464;50.988;10.318;2023-03-21T12:06:45;98809.69;;;14.69;58.38
28181;BME280;15464;50.988;10.318;2023-03-21T12:20:27;98795.09;;;14.47;58.55
28181;BME280;15464;50.988;10.318;2023-03-21T12:23:18;98793.31;;;14.30;59.01
28181;BME280;15464;50.988;10.318;2023-03-21T12:25:55;98794.66;;;14.34;59.33
28181;BME280;15464;50.988;10.318;2023-03-21T12:31:11;98784.22;;;14.15;59.05
28181;BME280;15464;50.988;10.318;2023-03-21T12:34:05;98782.59;;;13.96;59.77
28181;BME280;15464;50.988;10.318;2023-03-21T12:39:36;98793.72;;;13.48;60.98
28181;BME280;15464;50.988;10.318;2023-03-21T12:45:11;98788.59;;;13.19;61.10
28181;BME280;15464;50.988;10.318;2023-03-21T12:47:42;98787.53;;;13.30;62.36
28181;BME280;15464;50.988;10.318;2023-03-21T12:50:21;98794.63;;;13.12;62.91
28181;BME280;15464;50.988;10.318;2023-03-21T12:52:54;98797.13;;;13.23;62.38
28181;BME280;15464;50.988;10.318;2023-03-21T12:55:32;98799.69;;;13.15;62.75
28181;BME280;15464;50.988;10.318;2023-03-21T12:58:06;98791.75;;;13.05;64.12
28181;BME280;15464;50.988;10.318;2023-03-21T13:00:41;98788.81;;;13.26;63.25
28181;BME280;15464;50.988;10.318;2023-03-21T13:03:25;98779.00;;;13.26;61.38
28181;BME280;15464;50.988;10.318;2023-03-21T13:06:07;98796.53;;;13.02;63.00
28181;BME280;15464;50.988;10.318;2023-03-21T13:08:42;98780.69;;;13.00;63.26
28181;BME280;15464;50.988;10.318;2023-03-21T13:11:19;98796.28;;;12.95;63.18
28181;BME280;15464;50.988;10.318;2023-03-21T13:14:20;98793.97;;;12.82;63.48
28181;BME280;15464;50.988;10.318;2023-03-21T13:16:59;98778.81;;;12.92;64.41
28181;BME280;15464;50.988;10.318;2023-03-21T13:20:00;98782.84;;;12.97;64.59
28181;BME280;15464;50.988;10.318;2023-03-21T13:22:32;98785.53;;;12.87;65.35
28181;BME280;15464;50.988;10.318;2023-03-21T13:25:18;98781.47;;;12.92;65.42
28181;BME280;15464;50.988;10.318;2023-03-21T13:28:01;98788.44;;;12.93;65.36
28181;BME280;15464;50.988;10.318;2023-03-21T13:30:29;98770.31;;;12.62;66.80
28181;BME280;15464;50.988;10.318;2023-03-21T13:33:05;98767.53;;;12.53;66.79
28181;BME280;15464;50.988;10.318;2023-03-21T13:35:38;98770.13;;;12.63;66.79
28181;BME280;15464;50.988;10.318;2023-03-21T13:38:21;98776.50;;;12.52;67.38
28181;BME280;15464;50.988;10.318;2023-03-21T13:41:14;98768.41;;;12.44;67.44
28181;BME280;15464;50.988;10.318;2023-03-21T13:43:53;98763.91;;;12.45;68.25
28181;BME280;15464;50.988;10.318;2023-03-21T14:04:26;98752.69;;;12.51;67.81
28181;BME280;15464;50.988;10.318;2023-03-21T14:07:24;98746.53;;;12.50;67.39
28181;BME280;15464;50.988;10.318;2023-03-21T14:09:54;98748.03;;;12.35;68.53
28181;BME280;15464;50.988;10.318;2023-03-21T14:12:25;98749.38;;;12.39;68.17
28181;BME280;15464;50.988;10.318;2023-03-21T14:14:58;98743.78;;;12.42;67.37
28181;BME280;15464;50.988;10.318;2023-03-21T14:17:35;98741.66;;;12.46;67.91
28181;BME280;15464;50.988;10.318;2023-03-21T14:20:12;98743.44;;;12.55;68.01
28181;BME280;15464;50.988;10.318;2023-03-21T14:22:40;98740.97;;;12.44;69.19
28181;BME280;15464;50.988;10.318;2023-03-21T14:25:11;98734.16;;;12.32;70.16
28181;BME280;15464;50.988;10.318;2023-03-21T14:27:44;98744.00;;;12.22;70.94
28181;BME280;15464;50.988;10.318;2023-03-21T14:32:47;98738.06;;;12.00;73.20
28181;BME280;15464;50.988;10.318;2023-03-21T14:35:14;98738.69;;;11.75;74.85
28181;BME280;15464;50.988;10.318;2023-03-21T14:37:44;98738.69;;;11.65;75.41
28181;BME280;15464;50.988;10.318;2023-03-21T14:40:25;98741.22;;;11.38;77.22
28181;BME280;15464;50.988;10.318;2023-03-21T14:42:53;98739.44;;;11.29;78.00
28181;BME280;15464;50.988;10.318;2023-03-21T14:48:03;98737.06;;;11.16;80.94
28181;BME280;15464;50.988;10.318;2023-03-21T14:50:53;98744.00;;;10.88;82.05
28181;BME280;15464;50.988;10.318;2023-03-21T14:53:24;98733.53;;;11.06;82.55